Time;durP1;ratioP1;P1;durP2;ratioP2;P2;SDS_P1;SDS_P2;PMS_P1;PMS_P2;Temp;Humidity;BMP_temperature;BMP_pressure;BME280_temperature;BME280_humidity;BME280_pressure;Samples;Min_cycle;Max_cycle;Signal;HPM_P1;HPM_P2
2022/03/17 00:01:37;;;;;;;43.92;28.98;;;8.10;99.90;;;;;;5077051;28;20036;-59
2022/03/17 00:04:03;;;;;;;41.97;28.90;;;8.10;99.90;;;;;;5062510;28;20171;-59
2022/03/17 00:06:29;;;;;;;41.75;27.10;;;8.00;99.90;;;;;;5057223;28;20098;-59
2022/03/17 00:08:55;;;;;;;39.60;26.50;;;8.00;99.90;;;;;;5057020;28;20486;-60
2022/03/17 00:11:23;;;;;;;40.38;27.73;;;8.00;99.90;;;;;;5057304;28;20039;-59
2022/03/17 00:13:49;;;;;;;42.75;27.30;;;8.00;99.90;;;;;;5056884;28;20025;-59
2022/03/17 00:16:15;;;;;;;38.08;25.83;;;8.00;99.90;;;;;;5064222;28;20035;-59
2022/03/17 00:18:41;;;;;;;38.63;26.15;;;8.00;99.90;;;;;;5076971;28;20035;-60
2022/03/17 00:21:07;;;;;;;34.50;24.30;;;8.00;99.90;;;;;;5077023;28;20437;-59
2022/03/17 00:23:33;;;;;;;41.63;23.90;;;8.00;99.90;;;;;;5076890;28;20024;-60
2022/03/17 00:25:59;;;;;;;34.25;23.65;;;8.00;99.90;;;;;;5076931;28;20029;-59
2022/03/17 00:28:25;;;;;;;34.03;24.33;;;8.00;99.90;;;;;;5076563;28;20028;-59
2022/03/17 00:30:52;;;;;;;35.92;25.02;;;8.00;99.90;;;;;;5076389;28;20041;-59
2022/03/17 00:33:18;;;;;;;35.15;24.00;;;7.90;99.90;;;;;;5076393;28;20440;-59
2022/03/17 00:35:44;;;;;;;37.33;24.80;;;7.90;99.90;;;;;;5076669;28;20028;-59
2022/03/17 00:38:14;;;;;;;35.50;24.55;;;7.90;99.90;;;;;;5076674;28;20028;-59
2022/03/17 00:40:42;;;;;;;36.20;24.77;;;8.00;99.90;;;;;;5076636;28;20074;-59
2022/03/17 00:43:11;;;;;;;35.58;24.00;;;7.90;99.90;;;;;;5076508;28;20028;-60
2022/03/17 00:45:38;;;;;;;40.95;27.10;;;7.90;99.90;;;;;;5076569;28;20032;-59
2022/03/17 00:48:05;;;;;;;43.03;27.13;;;7.90;99.90;;;;;;5076293;28;20048;-59
2022/03/17 00:50:31;;;;;;;39.15;24.33;;;7.90;99.90;;;;;;5076521;28;20024;-60
2022/03/17 00:52:59;;;;;;;37.47;25.65;;;7.90;99.90;;;;;;5076182;28;20108;-59
2022/03/17 00:55:25;;;;;;;39.55;26.45;;;7.90;99.90;;;;;;5076137;28;20330;-59
2022/03/17 00:57:51;;;;;;;39.72;26.42;;;7.90;99.90;;;;;;5076415;28;20462;-59
2022/03/17 01:00:18;;;;;;;41.72;28.33;;;8.00;99.90;;;;;;5076232;28;20031;-59
2022/03/17 01:02:53;;;;;;;51.17;31.15;;;7.80;99.90;;;;;;5071759;28;20108;-59
2022/03/17 01:05:20;;;;;;;36.95;25.23;;;7.80;99.90;;;;;;5056020;28;20033;-59
2022/03/17 01:07:47;;;;;;;38.38;26.48;;;7.80;99.90;;;;;;5056011;28;20143;-60
2022/03/17 01:10:15;;;;;;;40.35;26.65;;;7.70;99.90;;;;;;5055942;28;20033;-59
2022/03/17 01:12:44;;;;;;;42.90;27.63;;;7.70;99.90;;;;;;5055967;28;20041;-59
2022/03/17 01:15:10;;;;;;;43.88;27.85;;;7.70;99.90;;;;;;5056008;28;20055;-59
2022/03/17 01:17:37;;;;;;;46.20;28.17;;;7.70;99.90;;;;;;5074424;28;20025;-59
2022/03/17 01:20:05;;;;;;;43.42;28.73;;;7.70;99.90;;;;;;5075711;28;20070;-59
2022/03/17 01:22:31;;;;;;;44.78;28.83;;;7.70;99.90;;;;;;5075649;28;20086;-59
2022/03/17 01:24:57;;;;;;;47.75;30.02;;;7.70;99.90;;;;;;5075604;28;20375;-59
2022/03/17 01:27:23;;;;;;;46.40;29.42;;;7.70;99.90;;;;;;5075643;28;20024;-59
2022/03/17 01:29:50;;;;;;;40.85;26.98;;;7.70;99.90;;;;;;5075556;28;20035;-59
2022/03/17 01:32:17;;;;;;;36.95;26.17;;;7.70;99.90;;;;;;5075113;28;20112;-59
2022/03/17 01:34:44;;;;;;;38.35;26.50;;;7.70;99.90;;;;;;5075546;28;20033;-59
2022/03/17 01:37:10;;;;;;;50.53;27.92;;;7.60;99.90;;;;;;5075411;28;20055;-59
2022/03/17 01:39:36;;;;;;;44.58;27.27;;;7.60;99.90;;;;;;5075352;28;20024;-59
2022/03/17 01:42:04;;;;;;;42.42;27.48;;;7.60;99.90;;;;;;5075317;28;20052;-59
2022/03/17 01:44:31;;;;;;;43.47;26.25;;;7.60;99.90;;;;;;5074632;28;20108;-59
2022/03/17 01:49:42;;;;;;;199.02;63.88;;;7.50;99.90;;;;;;5075133;28;20028;-59
2022/03/17 01:52:08;;;;;;;140.57;51.15;;;7.50;99.90;;;;;;5075000;28;20044;-59
2022/03/17 01:54:35;;;;;;;70.93;34.20;;;7.50;99.90;;;;;;5075064;28;20036;-59
2022/03/17 01:57:03;;;;;;;54.25;30.52;;;7.50;99.90;;;;;;5074928;28;20085;-59
2022/03/17 01:59:31;;;;;;;58.45;32.55;;;7.50;99.90;;;;;;5074946;28;20027;-59
2022/03/17 02:01:58;;;;;;;399.70;118.15;;;7.60;99.90;;;;;;5073353;28;20028;-59
2022/03/17 02:04:24;;;;;;;333.85;102.22;;;7.60;99.90;;;;;;5057359;28;20060;-59
2022/03/17 02:06:51;;;;;;;275.55;86.97;;;7.50;99.90;;;;;;5054883;28;20132;-59
2022/03/17 02:09:18;;;;;;;233.80;75.63;;;7.50;99.90;;;;;;5054692;28;20569;-59
2022/03/17 02:14:34;;;;;;;92.22;40.75;;;7.50;99.90;;;;;;5054684;28;20136;-59
2022/03/17 02:17:00;;;;;;;59.35;31.38;;;7.50;99.90;;;;;;5068149;28;20222;-59
2022/03/17 02:19:26;;;;;;;57.05;32.70;;;7.50;99.90;;;;;;5074561;28;20032;-59
2022/03/17 02:21:53;;;;;;;53.80;31.85;;;7.50;99.90;;;;;;5074524;28;20036;-59
2022/03/17 02:27:04;;;;;;;57.50;33.17;;;7.50;99.90;;;;;;5074555;28;20539;-59
2022/03/17 02:29:31;;;;;;;59.45;34.20;;;7.60;99.90;;;;;;5074335;28;20141;-59
2022/03/17 02:31:58;;;;;;;60.03;34.17;;;7.50;99.90;;;;;;5074330;28;20119;-59
2022/03/17 02:34:24;;;;;;;55.78;33.33;;;7.50;99.90;;;;;;5074473;28;20072;-59
2022/03/17 02:36:52;;;;;;;53.70;32.28;;;7.50;99.90;;;;;;5074493;28;20076;-59
2022/03/17 02:39:21;;;;;;;52.13;30.50;;;7.50;99.90;;;;;;5074532;28;20409;-59
2022/03/17 02:41:48;;;;;;;50.65;30.38;;;7.50;99.90;;;;;;5074328;28;20082;-59
2022/03/17 02:44:14;;;;;;;48.58;30.88;;;7.60;99.90;;;;;;5074209;28;20402;-59
2022/03/17 02:46:40;;;;;;;53.35;31.60;;;7.50;99.90;;;;;;5074497;28;20033;-59
2022/03/17 02:49:06;;;;;;;71.97;38.92;;;7.40;99.90;;;;;;5074368;28;20039;-59
2022/03/17 02:51:32;;;;;;;43.53;29.80;;;7.50;99.90;;;;;;5074516;28;20110;-59
2022/03/17 02:53:58;;;;;;;42.75;27.25;;;7.50;99.90;;;;;;5074063;28;20119;-59
2022/03/17 02:56:24;;;;;;;66.50;35.28;;;7.50;99.90;;;;;;5074120;28;20017;-59
2022/03/17 02:58:51;;;;;;;67.93;37.70;;;7.50;99.90;;;;;;5074274;28;20028;-59
2022/03/17 03:01:17;;;;;;;50.40;31.90;;;7.50;99.90;;;;;;5074415;28;20036;-59
2022/03/17 03:03:43;;;;;;;44.75;28.65;;;7.50;99.90;;;;;;5062188;28;20378;-59
2022/03/17 03:06:09;;;;;;;41.42;28.38;;;7.50;99.90;;;;;;5054036;28;20041;-59
2022/03/17 03:08:35;;;;;;;48.25;30.90;;;7.50;99.90;;;;;;5054081;28;20033;-59
2022/03/17 03:11:01;;;;;;;44.53;29.60;;;7.40;99.90;;;;;;5053833;28;20029;-59
2022/03/17 03:13:27;;;;;;;48.17;30.58;;;7.40;99.90;;;;;;5053910;28;20114;-59
2022/03/17 03:15:53;;;;;;;47.58;30.50;;;7.40;99.90;;;;;;5058375;28;20466;-59
2022/03/17 03:18:19;;;;;;;52.08;31.65;;;7.50;99.90;;;;;;5073951;28;20032;-59
2022/03/17 03:20:45;;;;;;;49.00;31.52;;;7.40;99.90;;;;;;5073847;28;20025;-59
2022/03/17 03:23:11;;;;;;;48.65;31.60;;;7.40;99.90;;;;;;5073893;28;20378;-59
2022/03/17 03:25:37;;;;;;;46.17;30.98;;;7.30;99.90;;;;;;5073899;28;20028;-60
2022/03/17 03:28:10;;;;;;;47.90;31.75;;;7.30;99.90;;;;;;5073971;28;20028;-59
2022/03/17 03:30:37;;;;;;;45.97;31.15;;;7.20;99.90;;;;;;5074089;28;20064;-59
2022/03/17 03:33:07;;;;;;;44.60;29.55;;;7.20;99.90;;;;;;5073441;28;20048;-59
2022/03/17 03:38:19;;;;;;;46.47;30.83;;;7.10;99.90;;;;;;5073983;28;20024;-59
2022/03/17 03:40:46;;;;;;;44.45;30.77;;;7.10;99.90;;;;;;5073619;28;20490;-59
2022/03/17 03:43:12;;;;;;;45.17;31.00;;;7.10;99.90;;;;;;5073723;28;20386;-59
2022/03/17 03:45:38;;;;;;;45.92;30.65;;;7.10;99.90;;;;;;5073907;28;20035;-59
2022/03/17 03:48:04;;;;;;;46.35;31.42;;;7.00;99.90;;;;;;5073628;28;20413;-59
2022/03/17 03:50:31;;;;;;;47.35;33.17;;;7.10;99.90;;;;;;5073719;28;20416;-59
2022/03/17 03:52:57;;;;;;;47.70;32.72;;;7.10;99.90;;;;;;5073983;28;20044;-59
2022/03/17 03:55:24;;;;;;;50.75;33.33;;;7.10;99.90;;;;;;5073375;28;20119;-59
2022/03/17 03:57:51;;;;;;;57.15;36.10;;;7.10;99.90;;;;;;5073812;28;20029;-59
2022/03/17 04:02:55;;;;;;;48.30;34.40;;;7.10;99.90;;;;;;5068323;28;20029;-59
2022/03/17 04:05:44;;;;;;;53.03;35.85;;;7.00;99.90;;;;;;5053627;28;20025;-59
2022/03/17 04:08:08;;;;;;;54.80;36.45;;;6.90;99.90;;;;;;5056292;28;20510;-59
2022/03/17 04:10:34;;;;;;;53.08;36.47;;;7.00;99.90;;;;;;5056957;28;20044;-59
2022/03/17 04:13:01;;;;;;;53.40;37.65;;;7.00;99.90;;;;;;5056897;28;20029;-59
2022/03/17 04:15:27;;;;;;;52.08;35.60;;;6.90;99.90;;;;;;5057549;28;20505;-59
2022/03/17 04:17:53;;;;;;;55.67;37.55;;;6.90;99.90;;;;;;5076974;28;20028;-59
2022/03/17 04:20:19;;;;;;;53.50;36.83;;;7.00;99.90;;;;;;5076762;28;20046;-59
2022/03/17 04:22:45;;;;;;;52.13;37.05;;;7.00;99.90;;;;;;5076622;28;20056;-59
2022/03/17 04:25:11;;;;;;;56.15;37.40;;;6.90;99.90;;;;;;5076771;28;20450;-59
2022/03/17 04:27:37;;;;;;;57.13;38.85;;;6.90;99.90;;;;;;5076993;28;20032;-59
2022/03/17 04:30:04;;;;;;;55.42;36.92;;;6.90;99.90;;;;;;5076740;28;20025;-59
2022/03/17 04:32:30;;;;;;;59.58;39.97;;;6.90;99.90;;;;;;5076364;28;20122;-59
2022/03/17 04:34:56;;;;;;;58.55;39.88;;;6.80;99.90;;;;;;5076926;28;20040;-59
2022/03/17 04:37:21;;;;;;;62.38;41.10;;;6.90;99.90;;;;;;5076541;28;20021;-59
2022/03/17 04:39:47;;;;;;;71.40;45.13;;;6.90;99.90;;;;;;5076514;28;20398;-59
2022/03/17 04:42:13;;;;;;;64.95;42.97;;;6.80;99.90;;;;;;5076579;28;20023;-59
2022/03/17 04:44:39;;;;;;;58.97;39.15;;;6.80;99.90;;;;;;5076393;28;20108;-59
2022/03/17 04:47:05;;;;;;;55.50;37.78;;;6.80;99.90;;;;;;5076549;28;20505;-59
2022/03/17 04:49:31;;;;;;;57.38;38.70;;;6.80;99.90;;;;;;5076529;28;20024;-59
2022/03/17 04:51:57;;;;;;;64.97;42.17;;;6.80;99.90;;;;;;5076575;28;20470;-59
2022/03/17 04:54:23;;;;;;;66.45;43.28;;;6.80;99.90;;;;;;5076111;28;20037;-59
2022/03/17 04:56:49;;;;;;;73.28;44.60;;;6.70;99.90;;;;;;5076036;28;20461;-59
2022/03/17 04:59:15;;;;;;;65.65;42.33;;;6.80;99.90;;;;;;5076181;28;20028;-59
2022/03/17 05:01:41;;;;;;;61.63;41.10;;;6.90;99.90;;;;;;5076275;28;20048;-59
2022/03/17 05:04:07;;;;;;;60.45;40.28;;;6.90;99.90;;;;;;5061085;28;20025;-59
2022/03/17 05:06:34;;;;;;;58.80;39.58;;;6.80;99.90;;;;;;5056167;28;20057;-59
2022/03/17 05:09:00;;;;;;;56.95;38.03;;;6.80;99.90;;;;;;5055886;28;20044;-59
2022/03/17 05:11:26;;;;;;;59.45;39.53;;;6.80;99.90;;;;;;5055834;28;20037;-59
2022/03/17 05:13:52;;;;;;;59.08;38.83;;;6.80;99.90;;;;;;5055858;28;20103;-59
2022/03/17 05:16:18;;;;;;;54.95;36.75;;;6.80;99.90;;;;;;5063615;28;20493;-59
2022/03/17 05:18:44;;;;;;;58.05;37.67;;;6.90;99.90;;;;;;5075694;28;20025;-59
2022/03/17 05:21:10;;;;;;;62.50;41.80;;;6.90;99.90;;;;;;5075667;28;20028;-59
2022/03/17 05:23:38;;;;;;;89.57;56.60;;;6.90;99.90;;;;;;5075772;28;20028;-59
2022/03/17 05:26:04;;;;;;;114.13;69.15;;;6.90;99.90;;;;;;5075617;28;20021;-59
2022/03/17 05:28:30;;;;;;;94.60;53.97;;;7.00;99.90;;;;;;5075588;28;20063;-59
2022/03/17 05:30:56;;;;;;;67.13;45.72;;;7.00;99.90;;;;;;5075254;28;20500;-59
2022/03/17 05:33:23;;;;;;;56.95;37.40;;;7.00;99.90;;;;;;5075177;28;20090;-59
2022/03/17 05:35:49;;;;;;;52.58;36.30;;;6.90;99.90;;;;;;5075543;28;20029;-59
2022/03/17 05:38:15;;;;;;;52.85;36.47;;;7.00;99.90;;;;;;5075428;28;20025;-59
2022/03/17 05:40:41;;;;;;;55.78;39.78;;;6.90;99.90;;;;;;5075170;28;20036;-59
2022/03/17 05:43:09;;;;;;;56.22;37.88;;;6.70;99.90;;;;;;5075114;28;20398;-59
2022/03/17 05:45:37;;;;;;;58.03;39.72;;;6.70;99.90;;;;;;5075414;28;20051;-59
2022/03/17 05:48:05;;;;;;;70.03;42.22;;;6.90;99.90;;;;;;5075076;28;20195;-59
2022/03/17 05:50:42;;;;;;;70.93;43.63;;;6.80;99.90;;;;;;5075103;28;20089;-59
2022/03/17 05:53:09;;;;;;;131.70;59.03;;;6.80;99.90;;;;;;5075070;28;20111;-59
2022/03/17 05:55:36;;;;;;;236.18;91.53;;;6.80;99.90;;;;;;5074651;28;20028;-59
2022/03/17 05:58:03;;;;;;;303.77;109.90;;;6.80;99.90;;;;;;5075040;28;20428;-59
2022/03/17 06:00:30;;;;;;;257.67;99.25;;;6.80;99.90;;;;;;5075009;28;20533;-59
2022/03/17 06:02:59;;;;;;;209.85;85.05;;;6.90;99.90;;;;;;5069381;28;20082;-59
2022/03/17 06:05:26;;;;;;;141.88;61.63;;;7.00;99.90;;;;;;5055026;28;20387;-59
2022/03/17 06:07:54;;;;;;;275.10;101.00;;;6.90;99.90;;;;;;5054785;28;20222;-59
2022/03/17 06:10:26;;;;;;;257.42;97.25;;;6.90;99.90;;;;;;5054631;28;20048;-59
2022/03/17 06:12:53;;;;;;;570.10;187.82;;;6.90;99.90;;;;;;5054653;28;20035;-59
2022/03/17 06:15:21;;;;;;;333.70;117.75;;;6.90;99.90;;;;;;5054712;28;20117;-59
2022/03/17 06:17:49;;;;;;;186.73;81.10;;;6.90;99.90;;;;;;5074223;28;20023;-59
2022/03/17 06:20:20;;;;;;;267.15;103.30;;;7.00;99.90;;;;;;5047434;28;20022;-59
2022/03/17 06:22:48;;;;;;;203.38;82.93;;;7.00;99.90;;;;;;5049419;28;20029;-59
2022/03/17 06:25:16;;;;;;;105.40;53.17;;;7.10;99.90;;;;;;5050643;28;20029;-59
2022/03/17 06:27:44;;;;;;;110.43;55.83;;;7.10;99.90;;;;;;5034744;28;20048;-59
2022/03/17 06:30:13;;;;;;;77.53;47.00;;;7.10;99.90;;;;;;5032135;28;20037;-59
2022/03/17 06:32:44;;;;;;;67.75;44.78;;;7.30;99.90;;;;;;5040796;28;20139;-59
2022/03/17 06:35:17;;;;;;;67.43;43.55;;;7.30;99.90;;;;;;5066137;28;20056;-59
2022/03/17 06:37:53;;;;;;;60.75;41.85;;;7.40;99.90;;;;;;5058468;28;20466;-59
2022/03/17 06:40:20;;;;;;;69.78;45.72;;;7.40;99.90;;;;;;5052858;28;20025;-59
2022/03/17 06:42:47;;;;;;;67.18;46.42;;;7.40;99.90;;;;;;5060124;28;20043;-59
2022/03/17 06:45:13;;;;;;;70.10;47.13;;;7.50;99.90;;;;;;5063503;28;20108;-59
2022/03/17 06:47:41;;;;;;;74.00;47.40;;;7.40;99.90;;;;;;5073746;28;20026;-59
2022/03/17 06:50:09;;;;;;;73.07;47.40;;;7.50;99.90;;;;;;5094400;28;20039;-59
2022/03/17 06:52:35;;;;;;;70.32;47.65;;;7.70;99.90;;;;;;5091848;28;20028;-59
2022/03/17 06:55:01;;;;;;;69.10;45.75;;;7.60;99.90;;;;;;5094142;28;20035;-59
2022/03/17 06:57:27;;;;;;;67.68;46.35;;;7.60;99.90;;;;;;5094136;28;20457;-59
2022/03/17 06:59:54;;;;;;;64.70;44.75;;;7.60;99.90;;;;;;5094073;28;20035;-59
2022/03/17 07:02:20;;;;;;;72.93;48.53;;;7.50;99.90;;;;;;5061816;28;20025;-59
2022/03/17 07:04:46;;;;;;;83.07;53.53;;;7.50;99.90;;;;;;5074141;28;20150;-59
2022/03/17 07:07:13;;;;;;;96.95;60.78;;;7.50;99.90;;;;;;5071212;28;20025;-59
2022/03/17 07:09:41;;;;;;;84.72;54.83;;;7.50;99.90;;;;;;5065400;28;20028;-59
2022/03/17 07:12:08;;;;;;;85.55;54.65;;;7.50;99.90;;;;;;5061355;28;20386;-60
2022/03/17 07:14:34;;;;;;;100.85;62.28;;;7.50;99.90;;;;;;5061019;28;20021;-58
2022/03/17 07:17:00;;;;;;;103.47;64.88;;;7.60;99.90;;;;;;5061136;28;20545;-58
2022/03/17 07:19:26;;;;;;;108.80;69.63;;;7.60;99.90;;;;;;5073723;28;20027;-58
2022/03/17 07:21:53;;;;;;;116.80;73.00;;;7.60;99.90;;;;;;5062893;28;20059;-58
2022/03/17 07:24:19;;;;;;;112.68;71.85;;;7.50;99.90;;;;;;5064286;28;20020;-58
2022/03/17 07:26:45;;;;;;;114.30;69.93;;;7.50;99.90;;;;;;5059390;28;20037;-58
2022/03/17 07:29:12;;;;;;;123.68;73.30;;;7.60;99.90;;;;;;5071008;28;20021;-58
2022/03/17 07:31:38;;;;;;;99.97;61.88;;;7.60;99.90;;;;;;5056771;28;20040;-58
2022/03/17 07:34:05;;;;;;;94.82;56.60;;;7.60;99.90;;;;;;5059043;28;20037;-58
2022/03/17 07:36:34;;;;;;;104.90;58.20;;;7.70;99.90;;;;;;5069722;28;20028;-58
2022/03/17 07:39:03;;;;;;;104.57;61.60;;;7.60;99.90;;;;;;5064593;28;20039;-58
2022/03/17 07:41:32;;;;;;;110.95;65.22;;;7.60;99.90;;;;;;5072352;28;20025;-58
2022/03/17 07:44:00;;;;;;;99.18;60.30;;;7.60;99.90;;;;;;5089803;28;20111;-58
2022/03/17 07:46:35;;;;;;;89.72;55.55;;;7.60;99.90;;;;;;5097842;28;20127;-58
2022/03/17 07:49:15;;;;;;;85.78;54.63;;;7.50;99.90;;;;;;5079147;28;20039;-58
2022/03/17 07:51:42;;;;;;;91.03;56.42;;;7.50;99.90;;;;;;5097835;28;20036;-58
2022/03/17 07:54:09;;;;;;;90.05;56.72;;;7.60;99.90;;;;;;5097715;28;20058;-58
2022/03/17 07:56:37;;;;;;;106.50;65.40;;;7.70;99.90;;;;;;5097117;28;20069;-58
2022/03/17 07:59:03;;;;;;;111.43;63.78;;;7.80;99.90;;;;;;5097688;28;20036;-58
2022/03/17 08:01:29;;;;;;;106.82;63.78;;;7.80;99.90;;;;;;5096895;28;20029;-58
2022/03/17 08:03:56;;;;;;;115.30;65.70;;;7.90;99.90;;;;;;5083621;28;20029;-58
2022/03/17 08:06:22;;;;;;;103.97;62.38;;;7.90;99.90;;;;;;5077054;28;20489;-58
2022/03/17 08:08:48;;;;;;;99.18;59.05;;;8.00;99.90;;;;;;5076855;28;20458;-58
2022/03/17 08:11:14;;;;;;;94.30;56.17;;;8.10;99.90;;;;;;5076098;28;20033;-58
2022/03/17 08:13:41;;;;;;;88.90;56.55;;;8.20;99.90;;;;;;5076043;28;20025;-58
2022/03/17 08:16:08;;;;;;;90.82;56.55;;;8.30;99.90;;;;;;5072708;28;20114;-58
2022/03/17 08:18:34;;;;;;;90.82;55.95;;;8.30;99.90;;;;;;5071065;28;20031;-58
2022/03/17 08:21:00;;;;;;;89.07;56.67;;;8.40;99.90;;;;;;5071550;28;20072;-58
2022/03/17 08:23:26;;;;;;;92.78;53.85;;;8.40;99.90;;;;;;5076839;28;20031;-58
2022/03/17 08:25:52;;;;;;;88.88;52.17;;;8.50;99.90;;;;;;5080459;28;20027;-58
2022/03/17 08:28:19;;;;;;;78.70;50.55;;;8.50;99.90;;;;;;5070780;28;20270;-58
2022/03/17 08:30:46;;;;;;;82.45;50.00;;;8.50;99.90;;;;;;5080793;28;20085;-58
2022/03/17 08:33:16;;;;;;;76.22;47.67;;;8.60;99.90;;;;;;5082571;28;20043;-58
2022/03/17 08:35:42;;;;;;;78.60;47.83;;;8.70;99.90;;;;;;5076101;28;20016;-58
2022/03/17 08:38:09;;;;;;;79.82;48.10;;;8.80;99.90;;;;;;5092666;28;20073;-58
2022/03/17 08:40:38;;;;;;;72.88;46.78;;;8.90;99.90;;;;;;5074619;28;20155;-59
2022/03/17 08:43:13;;;;;;;90.03;51.78;;;8.90;99.90;;;;;;5073698;28;20020;-59
2022/03/17 08:51:13;;;;;;;81.18;50.22;;;9.10;99.90;;;;;;5075647;28;20074;-58
2022/03/17 08:53:39;;;;;;;85.55;52.25;;;9.20;99.90;;;;;;5075102;28;20382;-59
2022/03/17 09:07:12;;;;;;;103.25;55.08;;;9.10;99.90;;;;;;5093632;28;20039;-62
2022/03/17 09:09:38;;;;;;;116.00;55.55;;;9.10;99.90;;;;;;5088597;28;20032;-60
2022/03/17 09:12:07;;;;;;;87.75;50.70;;;9.00;99.90;;;;;;5075636;28;20025;-60
2022/03/17 09:14:36;;;;;;;93.25;54.60;;;9.00;99.90;;;;;;5082885;28;20117;-59
2022/03/17 09:17:03;;;;;;;95.72;53.95;;;9.00;99.90;;;;;;5095467;28;20166;-59
2022/03/17 09:19:28;;;;;;;84.60;50.83;;;9.00;99.90;;;;;;5095884;28;20024;-58
2022/03/17 09:21:54;;;;;;;91.18;51.58;;;9.00;99.90;;;;;;5095669;28;20145;-59
2022/03/17 09:24:21;;;;;;;88.25;49.95;;;9.00;99.90;;;;;;5095356;28;20020;-60
2022/03/17 09:26:47;;;;;;;88.00;51.42;;;9.00;99.90;;;;;;5095564;28;20055;-60
2022/03/17 09:29:12;;;;;;;85.68;54.03;;;8.90;99.90;;;;;;5094646;28;20074;-60
2022/03/17 09:31:38;;;;;;;85.30;51.95;;;8.90;99.90;;;;;;5094957;28;20028;-60
2022/03/17 09:34:05;;;;;;;93.00;49.92;;;8.90;99.90;;;;;;5095392;28;20482;-59
2022/03/17 09:36:31;;;;;;;94.13;50.92;;;9.00;99.90;;;;;;5095201;28;20036;-60
2022/03/17 09:41:42;;;;;;;109.55;50.85;;;9.00;99.90;;;;;;5083622;28;20074;-60
2022/03/17 09:44:08;;;;;;;102.22;50.85;;;9.00;99.90;;;;;;5094782;28;20034;-60
2022/03/17 09:46:35;;;;;;;75.72;45.22;;;9.10;99.90;;;;;;5095429;28;20020;-60
2022/03/17 09:49:04;;;;;;;75.57;45.10;;;9.20;99.90;;;;;;5095232;28;20031;-60
2022/03/17 09:51:30;;;;;;;90.25;47.35;;;9.10;99.90;;;;;;5095145;28;20570;-60
2022/03/17 09:54:00;;;;;;;88.80;47.17;;;9.10;99.90;;;;;;5094964;28;20032;-60
2022/03/17 09:56:28;;;;;;;80.45;47.20;;;9.10;99.90;;;;;;5095109;28;20020;-60
2022/03/17 09:58:55;;;;;;;78.15;46.58;;;9.00;99.90;;;;;;5095139;28;20078;-60
2022/03/17 10:01:22;;;;;;;91.93;49.58;;;9.00;99.90;;;;;;5094538;28;20046;-60
2022/03/17 10:03:48;;;;;;;82.75;48.30;;;9.10;99.90;;;;;;5082042;28;20044;-60
2022/03/17 10:06:17;;;;;;;81.70;48.53;;;9.10;99.90;;;;;;5074747;28;20028;-60
2022/03/17 10:08:45;;;;;;;89.22;47.20;;;9.20;99.90;;;;;;5088928;28;20031;-60
2022/03/17 10:11:16;;;;;;;74.60;46.13;;;9.30;99.90;;;;;;5092732;28;20058;-60
2022/03/17 10:13:46;;;;;;;82.28;46.13;;;9.20;99.90;;;;;;5094356;28;20024;-60
2022/03/17 10:16:17;;;;;;;87.70;47.53;;;9.30;99.90;;;;;;5094973;28;20481;-60
2022/03/17 10:18:45;;;;;;;96.10;48.67;;;9.20;99.90;;;;;;5094302;28;20031;-60
2022/03/17 10:21:18;;;;;;;92.50;48.58;;;9.40;99.90;;;;;;5072512;28;20052;-59
2022/03/17 10:24:02;;;;;;;79.80;47.13;;;9.40;99.90;;;;;;5073886;28;20025;-60
2022/03/17 10:26:38;;;;;;;84.88;45.78;;;9.50;99.90;;;;;;5073617;28;20103;-60
2022/03/17 10:29:15;;;;;;;120.93;50.60;;;9.40;99.90;;;;;;5073924;28;20108;-59
2022/03/17 10:31:59;;;;;;;89.18;47.45;;;9.20;99.90;;;;;;5080109;28;20028;-59
2022/03/17 10:34:36;;;;;;;97.70;47.30;;;9.30;99.90;;;;;;5063773;28;20577;-59
2022/03/17 10:37:10;;;;;;;101.03;46.58;;;9.40;99.90;;;;;;5073435;28;20121;-61
2022/03/17 10:39:38;;;;;;;84.18;44.08;;;9.50;99.90;;;;;;5074159;28;20051;-59
2022/03/17 10:42:12;;;;;;;74.45;43.58;;;9.60;99.90;;;;;;5072201;28;20024;-59
2022/03/17 10:44:40;;;;;;;70.40;42.65;;;9.60;99.90;;;;;;5073542;28;20039;-59
2022/03/17 10:47:08;;;;;;;78.95;43.67;;;9.60;99.90;;;;;;5071911;28;20082;-59
2022/03/17 10:49:34;;;;;;;104.13;49.17;;;9.60;99.90;;;;;;5073573;28;20067;-60
2022/03/17 10:52:00;;;;;;;92.00;45.80;;;9.70;99.90;;;;;;5055415;28;20107;-60
2022/03/17 10:54:26;;;;;;;87.95;45.88;;;9.70;99.90;;;;;;5072958;28;20658;-59
2022/03/17 10:57:06;;;;;;;79.90;44.90;;;9.80;99.90;;;;;;5061875;28;20120;-59
2022/03/17 10:59:42;;;;;;;87.07;45.08;;;9.80;99.90;;;;;;5068783;28;20037;-59
2022/03/17 11:02:10;;;;;;;83.85;44.28;;;9.90;99.90;;;;;;5074080;28;20028;-59
2022/03/17 11:04:40;;;;;;;76.90;43.53;;;9.90;99.90;;;;;;5040425;28;20072;-58
2022/03/17 11:07:11;;;;;;;87.97;45.20;;;10.00;99.90;;;;;;5034601;28;20092;-59
2022/03/17 11:09:38;;;;;;;77.95;44.75;;;9.90;99.90;;;;;;5052211;28;20037;-59
2022/03/17 11:12:09;;;;;;;72.97;42.33;;;10.00;99.90;;;;;;5054053;28;20124;-59
2022/03/17 11:14:53;;;;;;;77.55;42.92;;;10.10;99.90;;;;;;5062073;28;20624;-59
2022/03/17 11:17:38;;;;;;;98.70;45.55;;;10.10;99.90;;;;;;5062740;28;20036;-59
2022/03/17 11:20:07;;;;;;;85.45;46.53;;;10.30;99.90;;;;;;5057683;28;20390;-59
2022/03/17 11:22:34;;;;;;;99.63;48.45;;;10.40;99.90;;;;;;5066386;28;20060;-59
2022/03/17 11:25:23;;;;;;;93.10;46.13;;;10.50;99.90;;;;;;5077467;28;20032;-59
2022/03/17 11:27:55;;;;;;;89.07;45.58;;;10.70;99.90;;;;;;5076827;28;20025;-59
2022/03/17 11:30:27;;;;;;;80.55;45.63;;;10.70;99.90;;;;;;5076829;28;20464;-59
2022/03/17 11:32:58;;;;;;;85.78;44.85;;;10.90;99.90;;;;;;5047271;28;20051;-59
2022/03/17 11:35:29;;;;;;;88.43;45.15;;;11.00;99.90;;;;;;5092852;28;20166;-59
2022/03/17 11:38:18;;;;;;;75.47;43.30;;;10.90;99.90;;;;;;5097889;28;20067;-59
2022/03/17 11:41:10;;;;;;;67.85;40.70;;;11.00;99.90;;;;;;5097387;28;20021;-59
2022/03/17 11:43:39;;;;;;;70.97;45.25;;;10.90;99.90;;;;;;5094099;28;20401;-59
2022/03/17 11:46:10;;;;;;;74.78;44.15;;;11.00;99.90;;;;;;5097135;28;20012;-60
2022/03/17 11:48:36;;;;;;;75.97;46.17;;;10.90;99.90;;;;;;5091827;28;20145;-58
2022/03/17 11:51:08;;;;;;;81.32;45.13;;;10.90;99.90;;;;;;5097551;28;20424;-58
2022/03/17 11:53:52;;;;;;;67.15;42.78;;;10.90;99.90;;;;;;5097613;28;20024;-59
2022/03/17 11:56:37;;;;;;;75.05;43.97;;;10.90;99.90;;;;;;5097516;28;20135;-60
2022/03/17 11:59:05;;;;;;;81.05;42.92;;;11.00;99.90;;;;;;5097333;28;20032;-60
2022/03/17 12:01:34;;;;;;;62.83;39.50;;;10.90;99.90;;;;;;5093762;28;20635;-60
2022/03/17 12:04:07;;;;;;;67.55;41.80;;;10.90;99.90;;;;;;5075179;28;20025;-60
2022/03/17 12:06:35;;;;;;;78.88;43.80;;;10.80;99.90;;;;;;5077394;28;20044;-61
2022/03/17 12:09:08;;;;;;;75.75;45.25;;;10.80;99.90;;;;;;5075037;28;20038;-59
2022/03/17 12:11:46;;;;;;;71.45;42.88;;;10.70;99.90;;;;;;5078148;28;20067;-59
2022/03/17 12:14:18;;;;;;;57.45;38.53;;;10.70;99.90;;;;;;5087620;28;20024;-59
2022/03/17 12:17:04;;;;;;;74.28;42.58;;;10.70;99.90;;;;;;5073904;28;20163;-60
2022/03/17 12:19:36;;;;;;;64.80;41.08;;;10.70;99.90;;;;;;5072135;28;20095;-60
2022/03/17 12:22:08;;;;;;;74.78;41.35;;;10.50;99.90;;;;;;5091441;28;20473;-60
2022/03/17 12:24:47;;;;;;;58.83;38.97;;;10.50;99.90;;;;;;5093390;28;20028;-60
2022/03/17 12:27:23;;;;;;;59.65;37.85;;;10.60;99.90;;;;;;5093369;28;20074;-60
2022/03/17 12:29:55;;;;;;;63.83;39.28;;;10.60;99.90;;;;;;5093583;28;20089;-60
2022/03/17 12:32:22;;;;;;;67.53;39.15;;;10.50;99.90;;;;;;5094099;28;20032;-60
2022/03/17 12:34:50;;;;;;;74.85;38.80;;;10.50;99.90;;;;;;5094659;28;20026;-60
2022/03/17 12:37:18;;;;;;;62.70;38.38;;;10.50;99.90;;;;;;5092483;28;20078;-60
2022/03/17 12:39:54;;;;;;;67.18;37.47;;;10.40;99.90;;;;;;5090768;28;20465;-60
2022/03/17 12:42:26;;;;;;;59.80;36.88;;;10.40;99.90;;;;;;5093287;28;20094;-60
2022/03/17 12:45:07;;;;;;;69.20;40.75;;;10.40;99.90;;;;;;5093657;28;20059;-60
2022/03/17 12:47:35;;;;;;;63.67;37.47;;;10.40;99.90;;;;;;5086612;28;20020;-60
2022/03/17 12:50:06;;;;;;;70.07;37.13;;;10.30;99.90;;;;;;5087654;28;20089;-60
2022/03/17 12:52:33;;;;;;;;;;;10.40;99.90;;;;;;5086491;28;20170;-60
2022/03/17 12:55:01;;;;;;;60.90;35.13;;;10.30;99.90;;;;;;5101791;28;19908;-58
2022/03/17 12:57:30;;;;;;;50.25;35.78;;;10.30;99.90;;;;;;5096510;28;20032;-59
2022/03/17 12:59:57;;;;;;;42.00;26.25;;;10.30;99.90;;;;;;5096208;28;20035;-59
2022/03/17 13:02:25;;;;;;;44.75;26.45;;;10.30;99.90;;;;;;5093202;28;20040;-60
2022/03/17 13:04:56;;;;;;;43.75;25.00;;;10.40;99.90;;;;;;5089073;28;20028;-60
2022/03/17 13:07:23;;;;;;;;;;;10.40;99.90;;;;;;5084601;28;20066;-58
2022/03/17 13:09:49;;;;;;;31.50;21.00;;;10.40;99.90;;;;;;5083430;28;20086;-59
2022/03/17 13:15:10;;;;;;;48.95;28.55;;;10.40;99.90;;;;;;5089867;28;20039;-58